createdAt,value
2017-05-17T00:00:27.184Z,6.16
2017-05-17T00:02:56.878Z,4.96
2017-05-17T00:05:26.584Z,5.38
2017-05-17T00:07:56.293Z,5.40
2017-05-17T00:10:25.981Z,5.12
2017-05-17T00:12:55.627Z,5.16
2017-05-17T00:15:25.277Z,5.20
2017-05-17T00:17:54.959Z,4.78
2017-05-17T00:20:24.643Z,5.40
2017-05-17T00:22:54.361Z,4.54
2017-05-17T00:25:23.242Z,4.10
2017-05-17T00:27:52.948Z,3.80
2017-05-17T00:30:22.599Z,4.42
2017-05-17T00:32:52.340Z,4.02
2017-05-17T00:36:51.959Z,4.30
2017-05-17T00:39:32.796Z,4.16
2017-05-17T00:42:13.814Z,3.98
2017-05-17T00:44:54.363Z,4.06
2017-05-17T00:47:35.183Z,4.40
2017-05-17T00:50:15.589Z,4.38
2017-05-17T00:52:45.310Z,4.08
2017-05-17T00:55:14.984Z,4.42
2017-05-17T00:57:44.946Z,4.48
2017-05-17T01:00:14.628Z,4.80
2017-05-17T01:02:44.322Z,4.38
2017-05-17T01:05:14.612Z,5.22
2017-05-17T01:07:44.653Z,5.06
2017-05-17T01:10:14.331Z,4.44
2017-05-17T01:12:43.978Z,4.70
2017-05-17T01:15:12.877Z,4.20
2017-05-17T01:17:42.542Z,4.60
2017-05-17T01:20:12.187Z,4.58
2017-05-17T01:22:42.092Z,4.54
2017-05-17T01:25:11.786Z,4.54
2017-05-17T01:27:41.407Z,4.52
2017-05-17T01:30:10.356Z,4.60
2017-05-17T01:32:40.072Z,4.82
2017-05-17T01:35:09.786Z,4.84
2017-05-17T01:37:39.483Z,4.68
2017-05-17T01:40:09.396Z,6.40
2017-05-17T01:42:39.079Z,5.78
2017-05-17T01:45:09.352Z,4.90
2017-05-17T01:47:39.181Z,5.04
2017-05-17T01:50:09.009Z,4.62
2017-05-17T01:52:39.027Z,5.02
2017-05-17T01:55:08.711Z,4.96
2017-05-17T01:57:38.479Z,4.18
2017-05-17T02:00:08.166Z,4.70
2017-05-17T02:02:37.815Z,4.10
2017-05-17T02:05:07.512Z,5.22
2017-05-17T02:07:37.168Z,5.30
2017-05-17T02:10:06.852Z,4.40
2017-05-17T02:12:36.484Z,4.58
2017-05-17T02:15:06.155Z,4.10
2017-05-17T02:17:35.801Z,4.00
2017-05-17T02:20:08.415Z,4.16
2017-05-17T02:22:38.081Z,5.28
2017-05-17T02:25:07.804Z,6.18
2017-05-17T02:27:36.726Z,4.42
2017-05-17T02:30:06.347Z,4.96
2017-05-17T02:32:36.018Z,4.52
2017-05-17T02:35:05.870Z,4.96
2017-05-17T02:37:35.561Z,5.98
2017-05-17T02:40:05.247Z,6.10
2017-05-17T02:42:34.931Z,5.46
2017-05-17T02:45:05.100Z,5.84
2017-05-17T02:47:34.737Z,6.00
2017-05-17T02:50:04.435Z,5.56
2017-05-17T02:52:34.088Z,6.12
2017-05-17T02:55:03.725Z,5.90
2017-05-17T02:57:33.401Z,6.60
2017-05-17T03:00:03.072Z,5.94
2017-05-17T03:02:32.737Z,7.26
2017-05-17T03:05:02.355Z,6.94
2017-05-17T03:08:51.582Z,5.80
2017-05-17T03:11:21.273Z,6.40
2017-05-17T03:13:50.948Z,5.32
2017-05-17T03:16:19.934Z,6.34
2017-05-17T03:18:49.571Z,6.06
2017-05-17T03:21:19.225Z,5.86
2017-05-17T03:23:48.914Z,6.32
2017-05-17T03:26:18.599Z,6.62
2017-05-17T03:28:48.268Z,5.16
2017-05-17T03:31:17.988Z,6.52
2017-05-17T03:33:47.660Z,6.60
2017-05-17T03:36:17.340Z,6.56
2017-05-17T03:38:47.037Z,6.92
2017-05-17T03:41:16.675Z,6.52
2017-05-17T03:43:46.358Z,6.96
2017-05-17T03:46:16.046Z,6.78
2017-05-17T03:48:45.757Z,6.18
2017-05-17T03:51:15.441Z,5.86
2017-05-17T03:53:45.114Z,6.12
2017-05-17T03:56:14.792Z,6.42
2017-05-17T03:58:44.444Z,6.70
2017-05-17T04:01:14.148Z,6.00
2017-05-17T04:03:43.804Z,6.64
2017-05-17T04:06:13.955Z,6.14
2017-05-17T04:08:43.580Z,7.18
2017-05-17T04:11:13.551Z,5.78
2017-05-17T04:13:43.352Z,6.60
2017-05-17T04:16:13.015Z,5.90
2017-05-17T04:18:42.656Z,6.90
2017-05-17T04:21:12.333Z,6.60
2017-05-17T04:23:41.975Z,7.56
2017-05-17T04:26:11.620Z,6.90
2017-05-17T04:28:41.542Z,5.98
2017-05-17T04:31:11.251Z,6.96
2017-05-17T04:33:41.000Z,6.32
2017-05-17T04:36:10.722Z,6.48
2017-05-17T04:38:40.499Z,6.28
2017-05-17T04:41:10.221Z,5.56
2017-05-17T04:43:40.121Z,5.68
2017-05-17T04:48:48.676Z,5.50
2017-05-17T04:51:18.356Z,5.12
2017-05-17T04:53:48.053Z,5.50
2017-05-17T04:56:17.718Z,5.50
2017-05-17T04:58:47.399Z,5.12
2017-05-17T05:01:17.120Z,6.32
2017-05-17T05:03:46.814Z,6.28
2017-05-17T05:06:16.626Z,6.42
2017-05-17T05:08:46.574Z,5.38
2017-05-17T05:11:16.310Z,5.20
2017-05-17T05:13:45.995Z,5.86
2017-05-17T05:16:15.707Z,4.88
2017-05-17T05:18:45.465Z,6.44
2017-05-17T05:21:15.218Z,6.08
2017-05-17T05:23:44.928Z,6.28
2017-05-17T05:26:14.659Z,5.42
2017-05-17T05:28:44.649Z,5.20
2017-05-17T05:31:13.617Z,4.60
2017-05-17T05:33:43.368Z,5.28
2017-05-17T05:36:13.100Z,5.04
2017-05-17T05:38:42.861Z,4.86
2017-05-17T05:41:12.594Z,5.12
2017-05-17T05:43:42.371Z,5.30
2017-05-17T05:46:12.113Z,5.34
2017-05-17T05:48:41.847Z,5.40
2017-05-17T05:51:11.627Z,5.46
2017-05-17T05:53:41.392Z,6.88
2017-05-17T05:56:11.120Z,8.68
2017-05-17T05:58:40.850Z,7.24
2017-05-17T06:01:10.558Z,6.96
2017-05-17T06:03:40.587Z,7.12
2017-05-17T06:06:10.347Z,5.92
2017-05-17T06:08:40.100Z,5.16
2017-05-17T06:11:09.848Z,5.96
2017-05-17T06:13:39.542Z,5.42
2017-05-17T06:16:09.376Z,5.40
2017-05-17T06:18:39.456Z,5.04
2017-05-17T06:21:09.375Z,5.88
2017-05-17T06:23:39.137Z,5.22
2017-05-17T06:26:09.032Z,5.16
2017-05-17T06:28:38.803Z,5.90
2017-05-17T06:31:08.819Z,5.26
2017-05-17T06:33:38.658Z,5.70
2017-05-17T06:36:08.382Z,6.08
2017-05-17T06:38:38.480Z,5.76
2017-05-17T06:41:08.157Z,5.22
2017-05-17T06:43:37.880Z,5.96
2017-05-17T06:46:07.594Z,5.30
2017-05-17T06:48:37.351Z,5.12
2017-05-17T06:51:07.986Z,5.30
2017-05-17T06:53:37.696Z,5.88
2017-05-17T06:56:07.583Z,5.34
2017-05-17T06:58:37.355Z,5.28
2017-05-17T07:01:07.418Z,5.44
2017-05-17T07:03:37.206Z,11.88
2017-05-17T07:06:07.192Z,10.68
2017-05-17T07:08:36.870Z,6.62
2017-05-17T07:11:06.606Z,5.48
2017-05-17T07:13:36.279Z,5.64
2017-05-17T07:16:06.395Z,7.92
2017-05-17T07:18:36.155Z,6.20
2017-05-17T07:21:05.885Z,11.26
2017-05-17T07:23:35.613Z,7.54
2017-05-17T07:26:05.412Z,6.36
2017-05-17T07:28:35.107Z,6.02
2017-05-17T07:31:04.982Z,4.38
2017-05-17T07:33:34.720Z,4.02
2017-05-17T07:36:04.493Z,4.40
2017-05-17T07:38:34.701Z,4.40
2017-05-17T07:41:04.626Z,4.32
2017-05-17T07:43:34.360Z,3.92
2017-05-17T07:46:04.119Z,4.40
2017-05-17T07:48:33.833Z,3.84
2017-05-17T07:51:03.573Z,4.56
2017-05-17T07:53:33.423Z,4.02
2017-05-17T07:56:02.382Z,5.26
2017-05-17T07:58:32.108Z,3.60
2017-05-17T08:01:01.905Z,3.04
2017-05-17T08:03:31.729Z,3.22
2017-05-17T08:06:01.453Z,3.10
2017-05-17T08:08:31.336Z,2.44
2017-05-17T08:11:01.082Z,3.06
2017-05-17T08:13:30.979Z,2.54
2017-05-17T08:16:00.709Z,2.30
2017-05-17T08:18:31.128Z,2.12
2017-05-17T08:22:03.107Z,2.00
2017-05-17T08:24:32.834Z,2.14
2017-05-17T08:27:02.727Z,2.32
2017-05-17T08:29:32.488Z,1.96
2017-05-17T08:32:02.276Z,2.20
2017-05-17T08:34:32.054Z,2.08
2017-05-17T08:37:01.983Z,2.24
2017-05-17T08:39:32.597Z,2.28
2017-05-17T08:42:02.410Z,2.74
2017-05-17T08:44:32.282Z,2.50
2017-05-17T08:47:02.069Z,2.28
2017-05-17T08:49:31.903Z,2.32
2017-05-17T08:52:01.726Z,2.30
2017-05-17T08:54:31.588Z,2.60
2017-05-17T08:57:01.316Z,2.32
2017-05-17T08:59:31.091Z,2.40
2017-05-17T09:03:20.447Z,2.30
2017-05-17T09:05:50.234Z,2.24
2017-05-17T09:08:20.022Z,2.26
2017-05-17T09:10:49.991Z,2.44
2017-05-17T09:13:19.816Z,2.16
2017-05-17T09:15:49.986Z,2.42
2017-05-17T09:18:20.030Z,2.64
2017-05-17T09:20:49.737Z,2.00
2017-05-17T09:23:19.502Z,2.36
2017-05-17T09:25:49.326Z,2.18
2017-05-17T09:28:19.142Z,2.46
2017-05-17T09:30:48.951Z,1.86
2017-05-17T09:33:20.879Z,2.74
2017-05-17T09:35:50.897Z,2.22
2017-05-17T09:38:20.781Z,2.20
2017-05-17T09:40:50.726Z,1.82
2017-05-17T09:43:20.479Z,2.02
2017-05-17T09:45:50.302Z,1.94
2017-05-17T09:48:20.075Z,2.40
2017-05-17T09:50:49.882Z,2.30
2017-05-17T09:55:58.598Z,2.12
2017-05-17T09:58:35.366Z,3.08
2017-05-17T10:01:05.133Z,2.60
2017-05-17T10:03:35.331Z,2.50
2017-05-17T10:06:05.068Z,2.50
2017-05-17T10:08:34.846Z,2.68
2017-05-17T10:11:04.567Z,2.26
2017-05-17T10:13:38.323Z,2.80
2017-05-17T10:16:08.082Z,2.20
2017-05-17T10:18:37.847Z,2.42
2017-05-17T10:21:07.594Z,2.56
2017-05-17T10:23:37.403Z,2.32
2017-05-17T10:26:07.097Z,2.62
2017-05-17T10:28:37.136Z,2.06
2017-05-17T10:31:08.342Z,2.22
2017-05-17T10:33:39.024Z,2.24
2017-05-17T10:36:08.972Z,2.54
2017-05-17T10:38:38.695Z,2.30
2017-05-17T10:41:08.437Z,2.20
2017-05-17T10:43:38.232Z,2.30
2017-05-17T10:46:07.992Z,2.72
2017-05-17T10:48:37.865Z,1.94
2017-05-17T10:51:07.699Z,2.42
2017-05-17T10:53:37.554Z,2.30
2017-05-17T10:56:07.097Z,2.58
2017-05-17T10:58:38.288Z,2.24
2017-05-17T11:01:08.314Z,1.94
2017-05-17T11:03:38.064Z,2.50
2017-05-17T11:06:08.087Z,2.32
2017-05-17T11:08:37.928Z,2.30
2017-05-17T11:11:08.452Z,2.78
2017-05-17T11:13:38.756Z,2.86
2017-05-17T11:16:08.679Z,2.30
2017-05-17T11:18:38.586Z,2.30
2017-05-17T11:21:08.615Z,2.20
2017-05-17T11:23:38.414Z,2.52
2017-05-17T11:26:08.313Z,2.30
2017-05-17T11:28:38.582Z,2.34
2017-05-17T11:31:08.486Z,2.22
2017-05-17T11:33:38.242Z,2.36
2017-05-17T11:36:08.177Z,2.70
2017-05-17T11:38:37.925Z,2.08
2017-05-17T11:41:07.941Z,2.50
2017-05-17T11:43:38.504Z,2.58
2017-05-17T11:46:09.230Z,2.76
2017-05-17T11:48:38.955Z,2.30
2017-05-17T11:51:08.678Z,2.34
2017-05-17T11:53:38.422Z,2.30
2017-05-17T11:56:08.153Z,2.64
2017-05-17T11:58:38.444Z,2.38
2017-05-17T12:01:10.918Z,2.32
2017-05-17T12:03:40.670Z,2.80
2017-05-17T12:06:10.501Z,2.88
2017-05-17T12:08:42.418Z,2.74
2017-05-17T12:11:13.292Z,2.60
2017-05-17T12:13:43.128Z,2.70
2017-05-17T12:16:12.937Z,2.86
2017-05-17T12:18:47.830Z,2.88
2017-05-17T12:21:17.587Z,2.86
2017-05-17T12:23:47.356Z,2.64
2017-05-17T12:26:17.112Z,2.88
2017-05-17T12:28:46.896Z,2.86
2017-05-17T12:31:16.669Z,2.70
2017-05-17T12:33:47.053Z,2.70
2017-05-17T12:36:16.948Z,3.30
2017-05-17T12:38:47.280Z,3.00
2017-05-17T12:41:17.077Z,3.22
2017-05-17T12:43:46.892Z,3.14
2017-05-17T12:46:16.712Z,2.74
2017-05-17T12:48:46.495Z,3.10
2017-05-17T12:51:18.079Z,3.04
2017-05-17T12:53:47.909Z,3.34
2017-05-17T12:56:18.246Z,2.78
2017-05-17T12:58:48.074Z,2.88
2017-05-17T13:01:18.829Z,3.08
2017-05-17T13:03:48.631Z,3.38
2017-05-17T13:06:19.073Z,3.84
2017-05-17T13:08:48.761Z,3.06
2017-05-17T13:11:19.150Z,2.98
2017-05-17T13:13:48.162Z,6.48
2017-05-17T13:16:17.886Z,2.80
2017-05-17T13:18:47.793Z,3.22
2017-05-17T13:21:17.918Z,3.00
2017-05-17T13:23:47.694Z,2.60
2017-05-17T13:26:17.522Z,2.48
2017-05-17T13:28:47.375Z,2.56
2017-05-17T13:31:17.167Z,2.58
2017-05-17T13:33:46.919Z,2.50
2017-05-17T13:36:17.379Z,3.40
2017-05-17T13:38:48.159Z,2.62
2017-05-17T13:41:17.906Z,3.20
2017-05-17T13:43:47.604Z,2.90
2017-05-17T13:46:16.663Z,3.18
2017-05-17T13:48:46.448Z,3.10
2017-05-17T13:51:18.130Z,2.80
2017-05-17T13:53:50.046Z,3.04
2017-05-17T13:56:19.875Z,3.10
2017-05-17T13:58:49.680Z,3.06
2017-05-17T14:01:19.571Z,2.96
2017-05-17T14:03:50.234Z,3.16
2017-05-17T14:06:20.918Z,3.00
2017-05-17T14:08:49.968Z,3.06
2017-05-17T14:11:50.361Z,2.62
2017-05-17T14:14:20.179Z,3.08
2017-05-17T14:16:50.053Z,3.04
2017-05-17T14:19:19.874Z,3.10
2017-05-17T14:21:49.747Z,2.94
2017-05-17T14:24:19.858Z,2.90
2017-05-17T14:26:49.673Z,2.56
2017-05-17T14:29:19.463Z,3.30
2017-05-17T14:31:49.236Z,3.32
2017-05-17T14:34:19.162Z,2.78
2017-05-17T14:36:50.543Z,2.80
2017-05-17T14:39:20.381Z,3.02
2017-05-17T14:41:50.748Z,2.76
2017-05-17T14:44:26.822Z,2.82
2017-05-17T14:46:57.274Z,2.68
2017-05-17T14:49:27.059Z,2.58
2017-05-17T14:51:56.836Z,2.12
2017-05-17T14:54:26.934Z,2.50
2017-05-17T14:56:56.807Z,2.42
2017-05-17T14:59:26.659Z,2.36
2017-05-17T15:01:56.553Z,2.10
2017-05-17T15:04:27.091Z,2.54
2017-05-17T15:06:58.842Z,2.26
2017-05-17T15:09:29.907Z,2.62
2017-05-17T15:12:00.195Z,2.10
2017-05-17T15:14:29.972Z,2.20
2017-05-17T15:17:02.077Z,1.94
2017-05-17T15:19:31.884Z,2.02
2017-05-17T15:22:32.482Z,2.08
2017-05-17T15:25:02.344Z,2.58
2017-05-17T15:27:33.183Z,2.30
2017-05-17T15:30:11.475Z,2.32
2017-05-17T15:32:42.295Z,2.46
2017-05-17T15:35:12.157Z,2.48
2017-05-17T15:37:42.747Z,2.50
2017-05-17T15:40:12.577Z,2.60
2017-05-17T15:42:43.291Z,2.16
2017-05-17T15:45:14.127Z,2.20
2017-05-17T15:47:44.388Z,2.50
2017-05-17T15:50:15.157Z,2.52
2017-05-17T15:52:47.245Z,2.90
2017-05-17T15:55:17.037Z,2.72
2017-05-17T15:57:47.030Z,3.02
2017-05-17T16:00:16.823Z,2.50
2017-05-17T16:02:52.817Z,3.02
2017-05-17T16:05:23.698Z,3.00
2017-05-17T16:07:54.714Z,2.58
2017-05-17T16:10:24.586Z,2.66
2017-05-17T16:12:55.268Z,2.40
2017-05-17T16:15:25.249Z,3.50
2017-05-17T16:17:55.130Z,3.16
2017-05-17T16:20:25.040Z,3.34
2017-05-17T16:22:55.111Z,3.64
2017-05-17T16:25:25.181Z,2.86
2017-05-17T16:27:55.411Z,3.22
2017-05-17T16:30:26.170Z,3.18
2017-05-17T16:32:57.091Z,2.80
2017-05-17T16:35:28.095Z,3.02
2017-05-17T16:37:58.807Z,3.12
2017-05-17T16:40:30.024Z,3.32
2017-05-17T16:43:01.518Z,3.02
2017-05-17T16:45:31.382Z,2.70
2017-05-17T16:48:01.298Z,2.90
2017-05-17T16:50:32.449Z,3.74
2017-05-17T16:53:02.478Z,3.64
2017-05-17T16:55:34.604Z,3.08
2017-05-17T16:58:04.368Z,3.12
2017-05-17T17:00:34.178Z,3.24
2017-05-17T17:03:06.423Z,2.72
2017-05-17T17:05:43.969Z,3.06
2017-05-17T17:08:13.910Z,3.50
2017-05-17T17:10:44.954Z,2.80
2017-05-17T17:13:15.555Z,2.96
2017-05-17T17:15:46.231Z,3.42
2017-05-17T17:18:17.170Z,3.20
2017-05-17T17:20:47.079Z,3.16
2017-05-17T17:23:17.905Z,3.50
2017-05-17T17:25:47.641Z,3.40
2017-05-17T17:28:17.462Z,2.98
2017-05-17T17:30:47.916Z,3.38
2017-05-17T17:33:20.285Z,3.08
2017-05-17T17:35:49.958Z,3.24
2017-05-17T17:38:19.783Z,3.32
2017-05-17T17:40:49.660Z,3.58
2017-05-17T17:43:19.513Z,3.18
2017-05-17T17:45:49.914Z,4.14
2017-05-17T17:48:19.731Z,3.18
2017-05-17T17:50:50.547Z,3.20
2017-05-17T17:53:20.300Z,3.40
2017-05-17T17:56:20.418Z,4.00
2017-05-17T17:58:51.940Z,3.34
2017-05-17T18:01:23.781Z,3.36
2017-05-17T18:03:53.831Z,3.48
2017-05-17T18:06:23.667Z,3.54
2017-05-17T18:08:53.547Z,3.24
2017-05-17T18:11:26.117Z,3.88
2017-05-17T18:13:56.930Z,3.32
2017-05-17T18:16:26.897Z,3.12
2017-05-17T18:18:59.833Z,3.38
2017-05-17T18:21:29.724Z,3.48
2017-05-17T18:24:00.541Z,2.88
2017-05-17T18:26:31.017Z,3.82
2017-05-17T18:29:01.993Z,3.40
2017-05-17T18:31:32.205Z,3.52
2017-05-17T18:34:03.303Z,3.44
2017-05-17T18:36:35.227Z,3.66
2017-05-17T18:39:05.878Z,3.60
2017-05-17T18:41:35.778Z,3.60
2017-05-17T18:44:06.967Z,3.68
2017-05-17T18:46:36.880Z,3.36
2017-05-17T18:49:07.065Z,4.16
2017-05-17T18:51:37.295Z,4.22
2017-05-17T18:54:07.188Z,4.30
2017-05-17T18:56:37.183Z,3.50
2017-05-17T18:59:09.717Z,4.40
2017-05-17T19:01:40.359Z,4.16
2017-05-17T19:04:11.044Z,4.18
2017-05-17T19:06:42.230Z,4.76
2017-05-17T19:09:14.529Z,4.94
2017-05-17T19:11:45.026Z,4.10
2017-05-17T19:14:15.087Z,4.84
2017-05-17T19:16:45.610Z,5.28
2017-05-17T19:19:17.234Z,4.62
2017-05-17T19:21:47.311Z,4.80
2017-05-17T19:24:17.962Z,4.46
2017-05-17T19:26:47.825Z,5.18
2017-05-17T19:29:17.365Z,5.44
2017-05-17T19:31:48.277Z,4.90
2017-05-17T19:34:19.645Z,4.52
2017-05-17T19:36:50.104Z,5.36
2017-05-17T19:39:20.157Z,4.80
2017-05-17T19:41:51.457Z,5.28
2017-05-17T19:44:21.470Z,4.64
2017-05-17T19:46:52.325Z,6.60
2017-05-17T19:49:22.792Z,5.62
2017-05-17T19:51:52.039Z,5.54
2017-05-17T19:55:27.513Z,5.34
2017-05-17T19:57:58.651Z,5.04
2017-05-17T20:00:29.015Z,5.80
2017-05-17T20:02:59.175Z,5.32
2017-05-17T20:05:30.693Z,5.80
2017-05-17T20:08:00.824Z,4.80
2017-05-17T20:10:31.870Z,4.82
2017-05-17T20:13:04.910Z,5.78
2017-05-17T20:15:36.470Z,5.06
2017-05-17T20:18:06.334Z,5.50
2017-05-17T20:20:36.514Z,5.18
2017-05-17T20:23:06.461Z,5.16
2017-05-17T20:25:36.421Z,5.88
2017-05-17T20:28:06.799Z,6.20
2017-05-17T20:30:43.361Z,5.12
2017-05-17T20:33:15.011Z,5.90
2017-05-17T20:35:45.867Z,5.48
2017-05-17T20:38:16.796Z,5.02
2017-05-17T20:40:46.605Z,5.70
2017-05-17T20:43:16.383Z,5.32
2017-05-17T20:45:48.142Z,5.12
2017-05-17T20:48:18.728Z,5.58
2017-05-17T20:50:48.472Z,4.70
2017-05-17T20:53:19.284Z,5.42
2017-05-17T20:55:49.391Z,5.52
2017-05-17T20:58:19.768Z,5.10
2017-05-17T21:00:49.463Z,5.54
2017-05-17T21:03:20.203Z,4.84
2017-05-17T21:05:51.563Z,5.30
2017-05-17T21:08:21.959Z,5.16
2017-05-17T21:10:53.211Z,4.96
2017-05-17T21:13:23.984Z,4.58
2017-05-17T21:15:54.345Z,5.02
2017-05-17T21:18:24.786Z,5.24
2017-05-17T21:20:54.486Z,5.24
2017-05-17T21:23:24.832Z,4.82
2017-05-17T21:25:56.021Z,6.00
2017-05-17T21:28:25.855Z,4.98
2017-05-17T21:30:55.859Z,5.24
2017-05-17T21:33:27.266Z,6.10
2017-05-17T21:35:57.067Z,5.52
2017-05-17T21:38:26.845Z,6.40
2017-05-17T21:40:56.742Z,6.40
2017-05-17T21:43:26.499Z,6.34
2017-05-17T21:45:57.224Z,6.10
2017-05-17T21:48:27.087Z,6.88
2017-05-17T21:50:57.099Z,6.06
2017-05-17T21:53:26.852Z,6.66
2017-05-17T21:55:56.596Z,5.96
2017-05-17T21:58:26.377Z,6.02
2017-05-17T22:00:56.086Z,5.48
2017-05-17T22:03:25.810Z,5.92
2017-05-17T22:05:55.528Z,6.34
2017-05-17T22:08:25.281Z,6.28
2017-05-17T22:10:54.988Z,6.94
2017-05-17T22:13:25.615Z,6.56
2017-05-17T22:15:55.310Z,6.76
2017-05-17T22:18:25.014Z,7.24
2017-05-17T22:20:55.995Z,6.62
2017-05-17T22:23:25.722Z,7.40
2017-05-17T22:25:55.451Z,6.92
2017-05-17T22:28:25.168Z,6.14
2017-05-17T22:30:54.855Z,6.80
2017-05-17T22:33:24.564Z,6.26
2017-05-17T22:35:55.161Z,7.16
2017-05-17T22:38:24.848Z,7.22
2017-05-17T22:40:54.553Z,6.92
2017-05-17T22:43:24.267Z,6.86
2017-05-17T22:45:54.003Z,6.54
2017-05-17T22:48:23.708Z,6.96
2017-05-17T22:50:53.767Z,6.76
2017-05-17T22:53:23.536Z,6.40
2017-05-17T22:55:53.188Z,6.66
2017-05-17T22:58:22.907Z,5.76
2017-05-17T23:00:52.637Z,6.28
2017-05-17T23:03:22.323Z,6.12
2017-05-17T23:05:52.467Z,6.68
2017-05-17T23:08:22.149Z,6.62
2017-05-17T23:10:51.820Z,6.68
2017-05-17T23:13:21.551Z,6.46
2017-05-17T23:15:51.252Z,6.86
2017-05-17T23:18:20.943Z,6.28
2017-05-17T23:20:50.761Z,7.02
2017-05-17T23:23:21.368Z,7.68
2017-05-17T23:25:51.083Z,7.62
2017-05-17T23:28:20.754Z,7.14
2017-05-17T23:30:50.750Z,6.48
2017-05-17T23:33:21.040Z,6.76
2017-05-17T23:35:50.796Z,7.76
2017-05-17T23:38:20.487Z,7.58
2017-05-17T23:40:50.203Z,6.88
2017-05-17T23:43:19.997Z,7.10
2017-05-17T23:45:50.171Z,7.28
2017-05-17T23:48:19.876Z,7.98
2017-05-17T23:50:49.624Z,7.02
2017-05-17T23:53:19.281Z,7.36
2017-05-17T23:55:48.971Z,7.20
2017-05-17T23:58:18.623Z,8.18
